Date,TemperatureHighF,TemperatureAvgF,TemperatureLowF,DewpointHighF,DewpointAvgF,DewpointLowF,HumidityHigh,HumidityAvg,HumidityLow,PressureMaxIn,PressureMinIn,WindSpeedMaxMPH,WindSpeedAvgMPH,GustSpeedMaxMPH,PrecipitationSumIn
2013-1-1,49,39,32,-100,-100,-100,0,0,100,0.00,40.00,7,0,0,0.00
2013-1-2,48,38,29,-100,-100,-100,0,0,100,0.00,40.00,9,1,0,0.00
2013-1-3,36,32,30,-100,-100,-100,0,0,100,0.00,40.00,8,0,0,0.00
2013-1-4,37,32,29,-100,-100,-100,0,0,100,0.00,40.00,3,0,0,0.00
2013-1-5,41,31,24,-100,-100,-100,0,0,100,0.00,40.00,2,0,0,0.00
2013-1-6,48,35,23,-100,-100,-100,0,0,100,0.00,40.00,3,0,0,0.00
2013-1-7,55,44,36,-100,-100,-100,0,0,100,0.00,40.00,7,1,0,0.00
2013-1-8,58,48,41,-100,-100,-100,0,0,100,0.00,40.00,4,0,0,0.00
2013-1-9,57,47,39,-100,-100,-100,0,0,100,0.00,40.00,7,1,0,0.00
2013-1-10,62,45,32,-100,-100,-100,0,0,100,0.00,40.00,5,0,0,0.00
2013-1-11,54,47,36,-100,-100,-100,0,0,100,0.00,40.00,16,4,0,0.00
2013-1-12,46,37,30,-100,-100,-100,0,0,100,0.00,40.00,16,2,0,0.00
2013-1-13,43,33,21,-100,-100,-100,0,0,100,0.00,40.00,0,0,0,0.00
2013-1-14,47,35,25,-100,-100,-100,0,0,100,0.00,40.00,10,0,0,0.00
2013-1-15,39,31,25,-100,-100,-100,0,0,100,0.00,40.00,8,1,0,0.00
2013-1-16,47,33,21,-100,-100,-100,0,0,100,0.00,40.00,0,0,0,0.00
2013-1-17,58,41,26,-100,-100,-100,0,0,100,0.00,40.00,3,0,0,0.00
2013-1-18,60,45,35,-100,-100,-100,0,0,100,0.00,40.00,5,0,0,0.00
2013-1-19,63,44,30,-100,-100,-100,0,0,100,0.00,40.00,0,0,0,0.00
2013-1-20,63,45,29,-100,-100,-100,0,0,100,0.00,40.00,0,0,0,0.00
2013-1-21,64,51,42,-100,-100,-100,0,0,100,0.00,40.00,9,0,0,0.00
2013-1-22,66,50,37,-100,-100,-100,0,0,100,0.00,40.00,9,0,0,0.00
2013-1-23,71,50,33,-100,-100,-100,0,0,100,0.00,40.00,0,0,0,0.00
2013-1-24,73,55,37,-100,-100,-100,0,0,100,0.00,40.00,7,0,0,0.00
2013-1-25,65,58,50,-100,-100,-100,0,0,100,0.00,40.00,2,0,0,0.00
2013-1-26,67,60,53,-100,-100,-100,0,0,100,0.00,40.00,12,2,0,0.00
2013-1-27,69,59,49,-100,-100,-100,0,0,100,0.00,40.00,9,1,0,0.00
2013-1-28,68,55,41,-100,-100,-100,0,0,100,0.00,40.00,21,5,0,0.00
2013-1-29,51,42,38,-100,-100,-100,0,0,100,0.00,40.00,21,8,0,0.00
2013-1-30,52,42,35,-100,-100,-100,0,0,100,0.00,40.00,21,4,0,0.00
2013-1-31,59,47,29,-100,-100,-100,0,0,100,0.00,40.00,2,0,0,0.00
2013-2-1,63,46,30,-100,-100,-100,0,0,100,0.00,40.00,4,0,0,0.00
2013-2-2,67,50,36,-100,-100,-100,0,0,100,0.00,40.00,8,0,0,0.00
2013-2-3,64,53,40,-100,-100,-100,0,0,100,0.00,40.00,0,0,0,0.00
2013-2-4,69,58,49,-100,-100,-100,0,0,100,0.00,40.00,7,0,0,0.00
2013-2-5,70,54,40,-100,-100,-100,0,0,100,0.00,40.00,6,0,0,0.00
2013-2-6,70,55,39,-100,-100,-100,0,0,100,0.00,40.00,13,1,0,0.00
2013-2-7,68,57,48,-100,-100,-100,0,0,100,0.00,40.00,0,0,0,0.00
2013-2-8,72,56,44,-100,-100,-100,0,0,100,0.00,40.00,7,0,0,0.00
2013-2-9,64,51,42,-100,-100,-100,0,0,100,0.00,40.00,23,7,0,0.00
2013-2-10,58,45,37,-100,-100,-100,0,0,100,0.00,40.00,20,5,0,0.00
2013-2-11,63,45,30,-100,-100,-100,0,0,100,0.00,40.00,6,0,0,0.00
2013-2-12,53,43,34,-100,-100,-100,0,0,100,0.00,40.00,12,2,0,0.00
2013-2-13,58,42,28,-100,-100,-100,0,0,100,0.00,40.00,4,0,0,0.00
2013-2-14,63,46,29,-100,-100,-100,0,0,100,0.00,40.00,5,0,0,0.00
2013-2-15,59,48,39,-100,-100,-100,0,0,100,0.00,40.00,0,0,0,0.00
2013-2-16,65,46,31,-100,-100,-100,0,0,100,0.00,40.00,0,0,0,0.00
2013-2-17,70,51,29,-100,-100,-100,0,0,100,0.00,40.00,19,2,0,0.00
2013-2-18,67,58,50,-100,-100,-100,0,0,100,0.00,40.00,16,3,0,0.00
2013-2-19,59,49,40,-100,-100,-100,0,0,100,0.00,40.00,9,0,0,0.00
2013-2-20,63,50,38,-100,-100,-100,0,0,100,0.00,40.00,22,4,0,0.00
2013-2-21,55,43,34,-100,-100,-100,0,0,100,0.00,40.00,36,6,0,0.00
2013-2-22,59,47,35,-100,-100,-100,0,0,100,0.00,40.00,18,3,0,0.00
2013-2-23,62,49,35,-100,-100,-100,0,0,100,0.00,40.00,13,2,0,0.00
2013-2-24,64,50,36,-100,-100,-100,0,0,100,0.00,40.00,27,8,0,0.00
2013-2-25,56,44,34,-100,-100,-100,0,0,100,0.00,40.00,16,3,0,0.00
2013-2-26,67,51,35,-100,-100,-100,0,0,100,0.00,40.00,15,3,0,0.00
2013-2-27,58,45,35,-100,-100,-100,0,0,100,0.00,40.00,9,1,0,0.00
2013-2-28,59,46,32,-100,-100,-100,0,0,100,0.00,40.00,4,0,0,0.00
2013-3-1,68,52,37,-100,-100,-100,0,0,100,0.00,40.00,8,0,0,0.00
2013-3-2,73,54,37,-100,-100,-100,0,0,100,0.00,40.00,4,0,0,0.00
2013-3-3,80,61,38,-100,-100,-100,0,0,100,0.00,40.00,20,4,0,0.00
2013-3-4,80,69,61,-100,-100,-100,0,0,100,0.00,40.00,19,6,0,0.00
2013-3-5,68,56,44,-100,-100,-100,0,0,100,0.00,40.00,6,1,0,0.00
2013-3-6,78,62,50,-100,-100,-100,0,0,100,0.00,40.00,4,0,0,0.00
2013-3-7,80,66,52,-100,-100,-100,0,0,100,0.00,40.00,12,2,0,0.00
2013-3-8,72,64,57,-100,-100,-100,0,0,100,0.00,40.00,15,5,0,0.00
2013-3-9,62,51,44,-100,-100,-100,0,0,100,0.00,40.00,21,7,0,0.00
2013-3-10,58,48,35,-100,-100,-100,0,0,100,0.00,40.00,10,0,0,0.00
2013-3-11,70,52,35,-100,-100,-100,0,0,100,0.00,40.00,11,1,0,0.00
2013-3-12,76,59,42,-100,-100,-100,0,0,100,0.00,40.00,8,1,0,0.00
2013-3-13,79,60,44,-100,-100,-100,0,0,100,0.00,40.00,7,0,0,0.00
2013-3-14,83,62,44,-100,-100,-100,0,0,100,0.00,40.00,2,0,0,0.00
2013-3-15,87,66,46,-100,-100,-100,0,0,100,0.00,40.00,9,0,0,0.00
2013-3-16,86,74,58,-100,-100,-100,0,0,100,0.00,40.00,17,3,0,0.00
2013-3-17,81,71,60,-100,-100,-100,0,0,100,0.00,40.00,21,6,0,0.00
2013-3-18,80,69,57,-100,-100,-100,0,0,100,0.00,40.00,18,2,0,0.00
2013-3-19,79,66,50,-100,-100,-100,0,0,100,0.00,40.00,12,2,0,0.00
2013-3-20,75,62,49,-100,-100,-100,0,0,100,0.00,40.00,3,0,0,0.00
2013-3-21,83,70,58,-100,-100,-100,0,0,100,0.00,40.00,19,5,0,0.00
2013-3-22,81,71,61,-100,-100,-100,0,0,100,0.00,40.00,18,5,0,0.00
2013-3-23,76,66,53,-100,-100,-100,0,0,100,0.00,40.00,32,9,0,0.00
2013-3-24,67,52,36,-100,-100,-100,0,0,100,0.00,40.00,5,0,0,0.00
2013-3-25,65,52,40,-100,-100,-100,0,0,100,0.00,40.00,3,0,0,0.00
2013-3-26,69,52,40,-100,-100,-100,0,0,100,0.00,40.00,0,0,0,0.00
2013-3-27,83,64,50,-100,-100,-100,0,0,100,0.00,40.00,7,0,0,0.00
2013-3-28,85,68,51,-100,-100,-100,0,0,100,0.00,40.00,0,0,0,0.00
2013-3-29,86,74,60,-100,-100,-100,0,0,100,0.00,40.00,10,1,0,0.00
2013-3-30,85,72,54,-100,-100,-100,0,0,100,0.00,40.00,8,0,0,0.00
2013-3-31,86,71,55,-100,-100,-100,0,0,100,0.00,40.00,5,0,0,0.00
2013-4-1,88,71,54,-100,-100,-100,0,0,100,0.00,40.00,12,1,0,0.00
2013-4-2,85,72,58,-100,-100,-100,0,0,100,0.00,40.00,15,3,0,0.00
2013-4-3,75,62,47,-100,-100,-100,0,0,100,0.00,40.00,10,0,0,0.00
2013-4-4,85,66,48,-100,-100,-100,0,0,100,0.00,40.00,7,0,0,0.00
2013-4-5,88,72,59,-100,-100,-100,0,0,100,0.00,40.00,15,2,0,0.00
2013-4-6,86,75,62,-100,-100,-100,0,0,100,0.00,40.00,12,2,0,0.00
2013-4-7,88,76,63,-100,-100,-100,0,0,100,0.00,40.00,16,4,0,0.00
2013-4-8,88,75,66,-100,-100,-100,0,0,100,0.00,40.00,15,6,0,0.00
2013-4-9,72,60,52,-100,-100,-100,0,0,100,0.00,40.00,20,6,0,0.00
2013-4-10,72,58,48,-100,-100,-100,0,0,100,0.00,40.00,16,5,0,0.00
2013-4-11,78,61,43,-100,-100,-100,0,0,100,0.00,40.00,9,1,0,0.00
2013-4-12,86,67,51,-100,-100,-100,0,0,100,0.00,40.00,10,0,0,0.00
2013-4-13,87,73,59,-100,-100,-100,0,0,100,0.00,40.00,15,1,0,0.00
2013-4-14,85,73,61,-100,-100,-100,0,0,100,0.00,40.00,17,5,0,0.00
2013-4-15,88,74,63,-100,-100,-100,0,0,100,0.00,40.00,15,6,0,0.00
2013-4-16,90,77,65,-100,-100,-100,0,0,100,0.00,40.00,16,6,0,0.00
2013-4-17,84,71,57,-100,-100,-100,0,0,100,0.00,40.00,23,8,0,0.00
2013-4-18,70,57,47,-100,-100,-100,0,0,100,0.00,40.00,10,2,0,0.00
2013-4-19,73,57,43,-100,-100,-100,0,0,100,0.00,40.00,6,0,0,0.00
2013-4-20,84,64,40,-100,-100,-100,0,0,100,0.00,40.00,15,3,0,0.00
2013-4-21,89,72,53,-100,-100,-100,0,0,100,0.00,40.00,11,1,0,0.00
2013-4-22,93,75,57,-100,-100,-100,0,0,100,0.00,40.00,12,2,0,0.00
2013-4-23,91,78,61,-100,-100,-100,0,0,100,0.00,40.00,16,3,0,0.00
2013-4-24,81,63,44,-100,-100,-100,0,0,100,0.00,40.00,2,0,0,0.00
2013-4-25,89,71,57,-100,-100,-100,0,0,100,0.00,40.00,13,1,0,0.00
2013-4-26,89,75,63,-100,-100,-100,0,0,100,0.00,40.00,15,2,0,0.00
2013-4-27,92,72,55,-100,-100,-100,0,0,100,0.00,40.00,8,0,0,0.00
2013-4-28,93,74,57,-100,-100,-100,0,0,100,0.00,40.00,5,0,0,0.00
2013-4-29,94,76,59,-100,-100,-100,0,0,100,0.00,40.00,8,1,0,0.00
2013-4-30,96,83,66,-100,-100,-100,0,0,100,0.00,40.00,14,2,0,0.00
2013-5-1,94,82,73,-100,-100,-100,0,0,100,0.00,40.00,12,4,0,0.00
2013-5-2,73,59,48,-100,-100,-100,0,0,100,0.00,40.00,13,2,0,0.00
2013-5-3,77,59,42,-100,-100,-100,0,0,100,0.00,40.00,7,1,0,0.00
2013-5-4,89,69,48,-100,-100,-100,0,0,100,0.00,40.00,3,0,0,0.00
2013-5-5,91,75,59,-100,-100,-100,0,0,100,0.00,40.00,8,0,0,0.00
2013-5-6,88,75,65,-100,-100,-100,0,0,100,0.00,40.00,13,3,0,0.00
2013-5-7,89,76,66,-100,-100,-100,0,0,100,0.00,40.00,15,5,0,0.00
2013-5-8,87,75,65,-100,-100,-100,0,0,100,0.00,40.00,18,4,0,0.00
2013-5-9,87,75,62,-100,-100,-100,0,0,100,0.00,40.00,14,2,0,0.00
2013-5-10,87,67,58,-100,-100,-100,0,0,100,0.00,40.00,11,1,0,0.00
2013-5-11,82,66,54,-100,-100,-100,0,0,100,0.00,40.00,9,1,0,0.00
2013-5-12,88,71,56,-100,-100,-100,0,0,100,0.00,40.00,6,0,0,0.00
2013-5-13,89,73,58,-100,-100,-100,0,0,100,0.00,40.00,7,0,0,0.00
2013-5-14,91,74,61,-100,-100,-100,0,0,100,0.00,40.00,7,1,0,0.00
2013-5-15,95,80,67,-100,-100,-100,0,0,100,0.00,40.00,19,4,0,0.00
2013-5-16,96,79,74,-100,-100,-100,0,0,100,0.00,40.00,14,4,0,0.00
2013-5-17,98,83,72,-100,-100,-100,0,0,100,0.00,40.00,9,1,0,0.00
2013-5-18,94,84,75,-100,-100,-100,0,0,100,0.00,40.00,21,5,0,0.00
2013-5-19,92,81,69,-100,-100,-100,0,0,100,0.00,40.00,17,3,0,0.00
2013-5-20,94,82,67,-100,-100,-100,0,0,100,0.00,40.00,16,4,0,0.00
2013-5-21,93,78,64,-100,-100,-100,0,0,100,0.00,40.00,14,1,0,0.00
2013-5-22,99,80,59,-100,-100,-100,0,0,100,0.00,40.00,11,1,0,0.00
2013-5-23,101,84,68,-100,-100,-100,0,0,100,0.00,40.00,9,1,0,0.00
2013-5-24,100,83,65,-100,-100,-100,0,0,100,0.00,40.00,9,0,0,0.00
2013-5-25,100,86,70,-100,-100,-100,0,0,100,0.00,40.00,10,2,0,0.00
2013-5-26,101,86,68,-100,-100,-100,0,0,100,0.00,40.00,12,3,0,0.00
2013-5-27,99,85,69,-100,-100,-100,0,0,100,0.00,40.00,8,1,0,0.00
2013-5-28,99,84,69,-100,-100,-100,0,0,100,0.00,40.00,13,3,0,0.00
2013-5-29,94,83,72,-100,-100,-100,0,0,100,0.00,40.00,18,5,0,0.00
2013-5-30,99,85,73,-100,-100,-100,0,0,100,0.00,40.00,14,4,0,0.00
2013-5-31,101,88,76,-100,-100,-100,0,0,100,0.00,40.00,15,3,0,0.00
2013-6-1,103,88,74,-100,-100,-100,0,0,100,0.00,40.00,15,2,0,0.00
2013-6-2,104,84,71,-100,-100,-100,0,0,100,0.00,40.00,10,1,0,0.00
2013-6-3,102,85,67,-100,-100,-100,0,0,100,0.00,40.00,9,2,0,0.00
2013-6-4,104,88,68,-100,-100,-100,0,0,100,0.00,40.00,14,2,0,0.00
2013-6-5,104,92,81,-100,-100,-100,0,0,100,0.00,40.00,12,2,0,0.00
2013-6-6,100,85,71,-100,-100,-100,0,0,100,0.00,40.00,11,1,0,0.00
2013-6-7,101,82,70,-100,-100,-100,0,0,100,0.00,40.00,15,1,0,0.00
2013-6-8,103,86,68,-100,-100,-100,0,0,100,0.00,40.00,23,2,0,0.00
2013-6-9,107,91,79,-100,-100,-100,0,0,100,0.00,40.00,23,3,0,0.00
2013-6-10,108,92,76,-100,-100,-100,0,0,100,0.00,40.00,10,1,0,0.00
2013-6-11,109,92,75,-100,-100,-100,0,0,100,0.00,40.00,4,0,0,0.00
2013-6-12,108,91,74,-100,-100,-100,0,0,100,0.00,40.00,9,0,0,0.00
2013-6-13,104,88,77,-100,-100,-100,0,0,100,0.00,40.00,12,1,0,0.00
2013-6-14,101,82,72,-100,-100,-100,0,0,100,0.00,40.00,9,0,0,0.00
2013-6-15,103,86,69,-100,-100,-100,0,0,100,0.00,40.00,5,0,0,0.00
2013-6-16,104,90,77,-100,-100,-100,0,0,100,0.00,40.00,8,1,0,0.00
2013-6-17,103,88,78,-100,-100,-100,0,0,100,0.00,40.00,9,1,0,0.00
2013-6-18,103,86,72,-100,-100,-100,0,0,100,0.00,40.00,5,0,0,0.00
2013-6-19,105,91,76,-100,-100,-100,0,0,100,0.00,40.00,13,2,0,0.00
2013-6-20,107,89,78,-100,-100,-100,0,0,100,0.00,40.00,14,2,0,0.00
2013-6-22,104,96,87,-100,-100,-100,0,0,100,0.00,40.00,10,2,0,0.00
2013-6-23,105,91,77,-100,-100,-100,0,0,100,0.00,40.00,10,2,0,0.00
2013-6-24,103,92,79,-100,-100,-100,0,0,100,0.00,40.00,13,2,0,0.00
2013-6-25,105,92,79,-100,-100,-100,0,0,100,0.00,40.00,9,1,0,0.00
2013-6-26,106,91,76,-100,-100,-100,0,0,100,0.00,40.00,12,2,0,0.00
2013-6-27,110,94,76,-100,-100,-100,0,0,100,0.00,40.00,7,0,0,0.00
2013-6-28,104,90,78,-100,-100,-100,0,0,100,0.00,40.00,5,0,0,0.00
2013-6-29,107,91,75,45,-85,-100,25,2,19,0.00,40.00,18,1,0,0.00
2013-6-30,100,88,78,58,46,37,48,25,12,30.10,29.98,10,1,0,0.13
2013-7-1,79,75,72,61,59,53,69,59,41,30.14,30.02,16,8,0,0.02
2013-7-2,90,84,73,58,49,43,59,32,20,30.14,29.94,10,2,0,0.00
2013-7-3,94,81,69,61,51,-100,75,41,17,30.12,29.91,9,1,0,0.00
2013-7-4,97,83,69,57,50,41,65,35,16,29.99,29.85,7,0,0,0.00
2013-7-5,101,88,73,54,44,-100,43,26,12,29.98,29.84,7,0,0,0.00
2013-7-6,102,89,78,57,51,42,48,30,14,29.91,29.83,17,1,0,0.00
2013-7-7,103,90,80,56,48,-100,43,25,14,30.01,29.87,9,1,0,0.00
2013-7-8,98,87,78,60,49,-100,51,29,15,30.06,29.96,10,1,0,0.20
2013-7-9,99,88,78,59,52,41,49,32,15,30.12,29.99,9,1,0,0.24
2013-7-10,99,86,76,62,53,-100,60,36,19,30.11,29.96,12,2,0,0.23
2013-7-11,97,87,78,59,54,46,47,34,18,30.05,29.90,8,1,0,0.24
2013-7-12,99,86,78,58,46,-100,50,32,15,30.01,29.83,11,1,0,0.24
2013-7-13,100,85,75,57,54,47,53,36,17,30.09,29.93,6,0,0,0.16
2013-7-14,99,95,85,53,45,41,33,19,14,29.95,29.86,6,1,0,0.00
2013-7-15,84,77,71,61,56,-100,62,51,35,30.11,29.93,10,2,0,0.00
2013-7-16,87,77,68,57,52,42,65,45,23,30.15,30.05,8,1,0,0.00
2013-7-17,79,74,67,64,57,52,83,57,42,30.23,30.12,9,2,0,0.00
2013-7-18,77,69,65,70,67,55,100,94,65,30.18,30.08,5,0,0,3.20
2013-7-19,84,75,67,68,65,59,99,75,45,30.12,29.96,6,0,0,11.72
2013-7-20,89,78,68,68,62,-100,94,63,30,30.04,29.92,8,1,0,11.85
2013-7-21,94,81,70,65,58,-100,80,51,24,30.02,29.87,9,1,0,12.00
2013-7-22,93,82,75,64,60,51,67,49,26,30.03,29.89,14,1,0,12.00
2013-7-23,96,82,75,64,61,56,64,49,26,30.04,29.91,12,2,0,12.00
2013-7-24,96,82,69,70,63,55,99,58,26,30.12,29.95,11,1,0,13.00
2013-7-25,90,77,66,69,63,-100,100,70,40,30.16,30.04,10,1,0,40.45
2013-7-26,92,82,76,71,65,55,83,59,33,30.17,30.06,12,1,0,43.20
2013-7-27,84,75,67,69,66,57,99,77,47,30.19,29.98,10,2,0,46.74
2013-7-28,92,79,69,69,61,-100,93,63,34,30.03,29.88,11,1,0,47.08
2013-7-29,96,84,74,68,58,-100,78,47,19,30.06,29.93,8,1,0,47.28
2013-7-30,99,84,75,64,57,47,61,41,17,30.16,30.02,8,1,0,47.34
2013-7-31,99,85,74,65,56,-100,72,42,18,30.21,30.04,7,0,0,47.69
2013-8-1,97,87,77,64,54,44,64,35,17,30.16,29.99,7,1,0,45.77
2013-8-2,96,87,77,64,57,51,62,39,24,30.07,29.93,8,1,0,47.76
2013-8-3,99,88,77,61,54,45,56,33,17,30.08,29.95,8,1,0,47.76
2013-8-4,102,88,78,59,52,-100,51,32,16,30.08,29.94,8,0,0,47.76
2013-8-5,99,87,77,59,52,44,45,32,16,30.07,29.91,15,2,0,47.76
2013-8-6,94,84,75,60,53,-100,60,37,18,30.06,29.95,12,3,0,47.76
2013-8-7,92,83,75,58,54,46,52,39,21,30.07,29.94,11,3,0,47.76
2013-8-8,96,84,70,57,49,37,63,33,14,30.04,29.90,7,1,0,47.76
2013-8-9,99,86,72,53,44,35,42,25,12,30.06,29.92,9,0,0,47.76
2013-8-10,87,79,72,66,57,51,80,48,33,30.21,30.06,11,2,0,48.15
2013-8-11,94,79,67,67,60,47,90,57,21,30.19,30.00,12,2,0,48.48
2013-8-21,96,84,72,57,47,33,54,31,13,30.06,29.95,6,0,0,52.80
2013-8-22,93,83,71,54,46,33,50,29,12,30.10,29.92,4,1,0,50.60
2013-8-23,94,81,71,57,53,43,62,40,18,30.06,29.92,6,1,0,52.80
2013-8-24,91,78,71,60,53,-100,65,44,26,30.07,29.94,9,2,0,50.60
2013-8-25,96,83,72,61,54,46,65,39,20,30.14,30.01,6,1,0,52.80
2013-8-26,91,82,72,57,53,49,56,38,25,30.15,29.99,6,1,0,52.80
2013-8-27,86,77,72,60,57,53,62,50,35,30.09,30.00,5,1,0,28.60
2013-10-13,81,71,60,55,47,43,66,44,29,30.08,29.97,7,1,0,0.00
2013-10-14,77,73,70,50,48,39,47,41,30,30.05,29.91,12,2,0,0.00
2013-10-15,74,67,59,56,48,33,68,52,30,30.01,29.89,9,2,0,0.00
2013-10-16,76,63,56,54,43,23,84,54,14,30.06,29.96,5,1,0,0.00
2013-10-17,76,64,46,42,31,16,71,32,15,30.04,29.84,6,1,0,0.00
2013-10-18,76,63,46,36,26,19,61,27,12,30.06,29.82,9,1,0,0.00
2013-10-19,72,54,42,38,31,-100,72,46,24,30.19,29.94,0,0,0,0.00
2013-10-20,78,62,42,37,27,9,74,36,9,30.00,29.84,8,1,0,0.00
2013-10-21,72,60,48,38,30,12,53,33,10,30.12,29.87,8,1,0,0.00
2013-10-22,75,60,46,42,38,29,78,47,23,30.21,30.06,4,0,0,0.00
2013-10-23,79,61,46,38,36,34,67,43,21,30.15,30.01,6,0,0,0.00
2013-10-24,82,67,55,44,35,-100,48,35,23,30.14,30.00,5,1,0,0.00
2013-11-17,70,62,54,46,37,-100,69,48,34,30.07,29.84,11,2,0,0.00
2013-11-18,72,59,51,43,41,32,71,52,28,30.16,30.05,1,0,0,0.00
2013-11-19,74,59,47,46,42,34,78,54,31,30.05,29.86,9,0,0,0.00
2013-11-20,72,62,49,44,42,34,79,50,32,29.91,29.80,10,2,0,0.00
2013-11-21,75,64,54,45,41,31,61,44,22,30.00,29.87,7,1,0,0.00
2013-11-22,61,43,36,40,31,21,78,65,42,30.30,29.99,8,2,0,0.00
2013-11-23,41,36,33,35,28,-100,91,78,58,30.37,30.25,7,1,0,0.00
2013-12-24,59,41,28,31,27,20,87,62,26,30.33,30.08,6,1,0,0.00
2013-12-25,55,44,35,33,30,22,82,60,30,30.32,30.12,4,0,0,0.00
2013-12-26,52,39,29,32,28,21,92,66,30,30.33,30.14,5,0,0,0.00
2013-12-27,56,41,28,31,27,22,86,61,30,30.29,30.15,7,1,0,0.00
2013-12-28,57,41,25,34,24,-100,86,57,29,30.16,29.86,12,1,0,0.00
2013-12-29,52,45,35,30,27,20,66,49,31,30.16,29.85,8,1,0,0.00
2013-12-30,56,40,26,29,23,-100,83,56,22,30.27,30.12,6,0,0,0.00